createdAt,value
2022-09-14T00:01:45.545Z,0.70
2022-09-14T00:06:38.866Z,0.50
2022-09-14T00:11:31.840Z,0.57
2022-09-14T00:16:23.978Z,1.00
2022-09-14T00:21:15.271Z,0.60
2022-09-14T00:26:09.533Z,0.60
2022-09-14T00:30:59.252Z,0.45
2022-09-14T00:35:48.898Z,0.57
2022-09-14T00:40:39.269Z,0.50
2022-09-14T00:45:32.404Z,0.80
2022-09-14T00:50:23.288Z,0.63
2022-09-14T00:55:15.332Z,0.70
2022-09-14T01:00:08.978Z,0.60
2022-09-14T01:05:01.372Z,0.77
2022-09-14T01:09:57.955Z,0.70
2022-09-14T01:14:57.498Z,0.90
2022-09-14T01:20:12.603Z,0.90
2022-09-14T01:25:14.495Z,0.60
2022-09-14T01:30:13.684Z,0.70
2022-09-14T01:35:14.114Z,0.55
2022-09-14T01:40:11.373Z,0.60
2022-09-14T01:45:04.653Z,0.50
2022-09-14T01:50:02.347Z,0.50
2022-09-14T01:54:57.113Z,0.70
2022-09-14T01:59:48.677Z,0.60
2022-09-14T02:04:45.867Z,0.67
2022-09-14T02:09:38.371Z,0.50
2022-09-14T02:14:28.254Z,0.60
2022-09-14T02:19:21.775Z,0.80
2022-09-14T02:24:14.227Z,0.50
2022-09-14T02:29:07.282Z,0.60
2022-09-14T02:34:07.236Z,0.60
2022-09-14T02:39:04.669Z,0.60
2022-09-14T02:44:02.465Z,0.50
2022-09-14T02:49:04.874Z,0.75
2022-09-14T02:54:01.676Z,0.90
2022-09-14T02:58:55.394Z,0.60
2022-09-14T03:03:49.532Z,1.00
2022-09-14T03:08:43.515Z,1.10
2022-09-14T03:13:34.877Z,1.05
2022-09-14T03:18:25.849Z,1.17
2022-09-14T03:23:17.193Z,1.10
2022-09-14T03:28:11.580Z,1.23
2022-09-14T03:33:02.143Z,0.80
2022-09-14T03:37:55.674Z,0.60
2022-09-14T03:42:46.324Z,0.88
2022-09-14T03:47:39.492Z,0.70
2022-09-14T03:52:29.838Z,0.50
2022-09-14T03:57:20.020Z,0.50
2022-09-14T04:02:10.949Z,0.80
2022-09-14T04:07:04.924Z,0.82
2022-09-14T04:11:55.759Z,0.55
2022-09-14T04:16:46.042Z,0.60
2022-09-14T04:21:37.434Z,0.60
2022-09-14T04:26:32.230Z,0.70
2022-09-14T04:31:23.131Z,0.70
2022-09-14T04:36:16.253Z,0.57
2022-09-14T04:41:09.455Z,0.60
2022-09-14T04:46:06.137Z,0.60
2022-09-14T04:50:59.827Z,0.50
2022-09-14T04:55:50.237Z,0.85
2022-09-14T05:00:43.577Z,0.55
2022-09-14T05:05:44.275Z,0.50
2022-09-14T05:10:35.231Z,0.55
2022-09-14T05:15:25.561Z,0.50
2022-09-14T05:20:16.472Z,0.50
2022-09-14T05:25:09.719Z,0.60
2022-09-14T05:30:00.627Z,0.50
2022-09-14T05:34:51.237Z,0.45
2022-09-14T05:39:43.461Z,0.55
2022-09-14T05:44:36.861Z,0.50
2022-09-14T05:49:28.341Z,0.80
2022-09-14T05:54:21.780Z,0.70
2022-09-14T05:59:12.807Z,0.88
2022-09-14T06:04:10.173Z,0.93
2022-09-14T06:09:01.277Z,0.80
2022-09-14T06:13:53.208Z,0.50
2022-09-14T06:18:45.229Z,0.68
2022-09-14T06:23:38.961Z,0.50
2022-09-14T06:28:30.782Z,0.50
2022-09-14T06:33:21.985Z,0.60
2022-09-14T06:38:12.960Z,0.30
2022-09-14T06:43:06.385Z,0.50
2022-09-14T06:48:06.459Z,0.50
2022-09-14T06:52:56.988Z,0.50
2022-09-14T06:57:49.894Z,0.43
2022-09-14T07:02:45.716Z,0.45
2022-09-14T07:07:36.639Z,0.40
2022-09-14T07:12:27.437Z,0.50
2022-09-14T07:17:18.215Z,0.70
2022-09-14T07:22:11.458Z,0.93
2022-09-14T07:27:01.980Z,1.60
2022-09-14T07:31:55.042Z,1.20
2022-09-14T07:36:46.459Z,1.60
2022-09-14T07:41:39.077Z,1.27
2022-09-14T07:46:33.379Z,1.20
2022-09-14T07:51:24.099Z,1.40
2022-09-14T07:56:19.520Z,1.10
2022-09-14T08:01:15.437Z,0.80
2022-09-14T08:06:08.196Z,0.60
2022-09-14T08:10:59.366Z,0.45
2022-09-14T08:15:50.010Z,0.60
2022-09-14T08:20:51.033Z,0.50
2022-09-14T08:25:41.725Z,0.50
2022-09-14T08:30:32.931Z,0.40
2022-09-14T08:35:40.846Z,0.47
2022-09-14T08:40:36.576Z,0.70
2022-09-14T08:45:27.403Z,0.40
2022-09-14T08:50:21.726Z,0.50
2022-09-14T08:55:30.501Z,0.40
2022-09-14T09:00:27.224Z,0.40
2022-09-14T09:05:33.375Z,0.40
2022-09-14T09:10:28.589Z,0.50
2022-09-14T09:15:27.869Z,0.50
2022-09-14T09:20:23.662Z,0.50
2022-09-14T09:25:23.378Z,0.50
2022-09-14T09:30:17.485Z,0.50
2022-09-14T09:35:13.509Z,0.55
2022-09-14T09:40:28.189Z,0.70
2022-09-14T09:45:18.588Z,1.05
2022-09-14T09:50:27.299Z,0.70
2022-09-14T09:55:22.546Z,0.70
2022-09-14T10:00:25.027Z,0.80
2022-09-14T10:05:29.297Z,0.80
2022-09-14T10:10:21.390Z,0.90
2022-09-14T10:15:20.048Z,1.45
2022-09-14T10:20:23.908Z,1.30
2022-09-14T10:25:29.150Z,0.60
2022-09-14T10:30:22.145Z,0.57
2022-09-14T10:35:17.470Z,0.35
2022-09-14T10:40:17.433Z,0.40
2022-09-14T10:45:22.860Z,0.40
2022-09-14T10:50:36.748Z,0.30
2022-09-14T10:55:36.992Z,0.60
2022-09-14T11:00:34.089Z,0.30
2022-09-14T11:05:29.120Z,0.40
2022-09-14T11:10:26.303Z,0.60
2022-09-14T11:15:24.890Z,0.60
2022-09-14T11:20:28.542Z,0.50
2022-09-14T11:25:24.493Z,0.50
2022-09-14T11:30:19.439Z,0.60
2022-09-14T11:35:19.488Z,0.85
2022-09-14T11:40:22.311Z,0.40
2022-09-14T11:45:21.645Z,0.50
2022-09-14T11:50:22.381Z,0.50
2022-09-14T11:55:20.973Z,0.70
2022-09-14T12:01:01.950Z,0.60
2022-09-14T12:05:53.827Z,0.60
2022-09-14T12:11:06.478Z,0.82
2022-09-14T12:16:05.292Z,0.70
2022-09-14T12:21:10.776Z,0.50
2022-09-14T12:26:16.731Z,0.70
2022-09-14T12:31:15.583Z,0.70
2022-09-14T12:36:06.446Z,0.80
2022-09-14T12:40:56.120Z,0.47
2022-09-14T12:46:04.789Z,0.73
2022-09-14T12:50:56.319Z,0.80
2022-09-14T12:55:56.629Z,0.80
2022-09-14T13:01:03.501Z,0.73
2022-09-14T13:05:54.080Z,0.50
2022-09-14T13:10:49.762Z,0.53
2022-09-14T13:15:49.969Z,0.57
2022-09-14T13:20:43.244Z,0.63
2022-09-14T13:25:39.007Z,0.60
2022-09-14T13:30:36.746Z,0.60
2022-09-14T13:36:01.775Z,0.60
2022-09-14T13:40:57.137Z,1.17
2022-09-14T13:45:47.916Z,0.50
2022-09-14T13:50:38.273Z,0.80
2022-09-14T13:55:30.981Z,0.60
2022-09-14T14:00:25.068Z,0.60
2022-09-14T14:05:26.614Z,0.70
2022-09-14T14:10:27.600Z,0.73
2022-09-14T14:15:41.351Z,0.63
2022-09-14T14:20:35.635Z,0.75
2022-09-14T14:25:32.003Z,0.60
2022-09-14T14:30:27.488Z,0.90
2022-09-14T14:35:28.123Z,0.70
2022-09-14T14:40:20.305Z,0.60
2022-09-14T14:45:19.452Z,0.90
2022-09-14T14:50:27.790Z,1.00
2022-09-14T14:55:23.006Z,0.60
2022-09-14T15:00:17.988Z,0.90
2022-09-14T15:05:09.667Z,0.70
2022-09-14T15:10:02.586Z,0.80
2022-09-14T15:14:56.510Z,1.17
2022-09-14T15:19:51.026Z,1.10
2022-09-14T15:24:42.298Z,0.80
2022-09-14T15:29:32.816Z,1.08
2022-09-14T15:34:26.365Z,0.90
2022-09-14T15:39:17.750Z,1.20
2022-09-14T15:44:08.056Z,0.93
2022-09-14T15:48:59.231Z,1.20
2022-09-14T15:53:53.331Z,1.17
2022-09-14T15:58:47.994Z,1.20
2022-09-14T16:03:38.824Z,1.33
2022-09-14T16:08:29.778Z,1.70
2022-09-14T16:13:23.004Z,1.20
2022-09-14T16:18:13.749Z,1.50
2022-09-14T16:23:03.813Z,1.70
2022-09-14T16:27:53.626Z,1.80
2022-09-14T16:32:47.635Z,1.30
2022-09-14T16:37:38.272Z,1.65
2022-09-14T16:42:29.028Z,1.30
2022-09-14T16:47:19.492Z,1.30
2022-09-14T16:52:12.754Z,0.95
2022-09-14T16:57:03.721Z,1.30
2022-09-14T17:01:55.280Z,1.33
2022-09-14T17:06:48.252Z,1.25
2022-09-14T17:11:44.517Z,1.20
2022-09-14T17:16:37.771Z,1.30
2022-09-14T17:21:31.348Z,1.00
2022-09-14T17:26:22.904Z,1.30
2022-09-14T17:31:17.603Z,1.05
2022-09-14T17:36:09.667Z,0.90
2022-09-14T17:41:05.096Z,1.20
2022-09-14T17:45:59.110Z,1.10
2022-09-14T17:50:57.104Z,1.52
2022-09-14T17:55:48.784Z,1.48
2022-09-14T18:00:40.024Z,2.10
2022-09-14T18:05:30.653Z,1.75
2022-09-14T18:10:23.862Z,1.95
2022-09-14T18:15:15.558Z,2.33
2022-09-14T18:20:06.481Z,1.75
2022-09-14T18:24:56.476Z,1.98
2022-09-14T18:29:50.078Z,2.00
2022-09-14T18:34:40.495Z,1.60
2022-09-14T18:39:32.009Z,2.17
2022-09-14T18:44:22.992Z,2.20
2022-09-14T18:49:18.234Z,2.50
2022-09-14T18:54:10.374Z,2.13
2022-09-14T18:59:02.825Z,2.33
2022-09-14T19:03:54.108Z,2.00
2022-09-14T19:08:47.671Z,1.90
2022-09-14T19:13:38.724Z,1.80
2022-09-14T19:18:29.065Z,1.67
2022-09-14T19:23:20.006Z,1.85
2022-09-14T19:28:12.630Z,2.13
2022-09-14T19:33:02.894Z,1.73
2022-09-14T19:37:53.002Z,1.70
2022-09-14T19:42:43.103Z,1.40
2022-09-14T19:47:36.813Z,1.40
2022-09-14T19:52:27.668Z,1.88
2022-09-14T19:57:19.950Z,1.45
2022-09-14T20:02:12.854Z,1.23
2022-09-14T20:07:07.838Z,1.63
2022-09-14T20:11:58.423Z,1.48
2022-09-14T20:16:50.554Z,1.30
2022-09-14T20:21:41.472Z,1.70
2022-09-14T20:26:35.309Z,1.42
2022-09-14T20:31:25.143Z,1.50
2022-09-14T20:36:17.589Z,1.33
2022-09-14T20:41:10.795Z,1.75
2022-09-14T20:46:09.166Z,1.67
2022-09-14T20:51:00.562Z,2.53
2022-09-14T20:55:51.806Z,2.45
2022-09-14T21:00:45.224Z,1.60
2022-09-14T21:05:38.923Z,2.08
2022-09-14T21:10:29.656Z,2.92
2022-09-14T21:15:22.715Z,1.80
2022-09-14T21:20:13.875Z,2.00
2022-09-14T21:25:07.788Z,1.60
2022-09-14T21:29:58.275Z,1.38
2022-09-14T21:34:48.832Z,1.30
2022-09-14T21:39:40.407Z,1.60
2022-09-14T21:44:37.817Z,1.20
2022-09-14T21:49:28.755Z,1.38
2022-09-14T21:54:20.578Z,1.87
2022-09-14T21:59:14.302Z,1.30
2022-09-14T22:04:08.865Z,1.20
2022-09-14T22:09:01.851Z,1.15
2022-09-14T22:13:56.966Z,1.60
2022-09-14T22:18:53.087Z,1.63
2022-09-14T22:23:47.283Z,1.43
2022-09-14T22:28:40.476Z,1.10
2022-09-14T22:33:30.397Z,1.40
2022-09-14T22:38:20.183Z,1.50
2022-09-14T22:43:12.894Z,1.17
2022-09-14T22:48:03.502Z,1.60
2022-09-14T22:52:54.191Z,1.10
2022-09-14T22:57:47.169Z,1.67
2022-09-14T23:02:40.663Z,1.40
2022-09-14T23:07:31.228Z,0.98
2022-09-14T23:12:23.777Z,1.15
2022-09-14T23:17:15.354Z,1.10
2022-09-14T23:22:09.211Z,1.00
2022-09-14T23:26:59.674Z,1.27
2022-09-14T23:31:53.064Z,1.00
2022-09-14T23:36:45.350Z,1.10
2022-09-14T23:41:39.945Z,1.08
2022-09-14T23:46:30.160Z,1.10
2022-09-14T23:51:21.372Z,1.00
2022-09-14T23:56:14.391Z,1.23
